首页
METAR-TAF:

METAR-TAF

机场 :

莫比尔, 阿拉巴马州, 美国

纬度: 30-41-18N, 经度: 088-14-44W, 海拔: 66米

当前天气观测

该预报发布于13分钟前的23:56 UTC
风速11节,风向北转东北,有时为16节阵风
温度 23°C
湿度 100%
气压 1012 hPa
能見度: 3.2公里
少量云层高于400英尺
多云层高于1400英尺
多云层高于3000英尺, 积雨云.
雷暴, 大雨, 轻雾

METAR: KMOB 262356Z COR 03011G16KT 2SM +TSRA BR FEW004 BKN014 BKN030CB 23/23 A2988 RMK AO2 LTG DSNT S RAB31 TSB46 SLP115 FRQ LTGICCC N-E AND TS N-E AND S MOV NE CB DSNT ALQDS P0072 60076 T02330228 10272 20233 53003

时间: 19:09 (00:09 UTC)

预报

该预报发布于15分钟前的23:54 UTC
预报有效从27日的 00点(UTC)到 27日的 24点(UTC)
风速7节,风向东北
能見度: 10公里
多云层高于1400英尺, 积雨云.
多云层高于2200英尺
阴天层高于5000英尺
附近有雷暴
短暂存在
从 27日的 00点(UTC)到 27日的 01点(UTC)
风速15节,风向多变
能見度: 3.2公里
雷暴, 雨
从 27日的 0600点(UTC)
风速4节,风向东转东北
能見度: 10公里
多云层高于1700英尺
附近有阵雨
从 27日的 1400点(UTC)
风速4节,风向
能見度: 10公里
多云层高于1400英尺
几率 30%
从 27日的 14点(UTC)到 27日的 18点(UTC)
能見度: 6.4公里
阴天层高于900英尺, 积雨云.
雷暴, 小雨

TAF: KMOB 262354Z 2700/2724 04007KT P6SM VCTS BKN014CB BKN022 OVC050 TEMPO 2700/2701 VRB15KT 2SM TSRA FM270600 06004KT P6SM VCSH BKN017 FM271400 10004KT P6SM BKN014 PROB30 2714/2718 4SM -TSRA OVC009CB

超过4000个机场的气象观测和天气预报(METAR&TAF报告)。

可查询的气象台以黄色和红色小点在地图上表示。

将鼠标移到小点上方,可查看气象台名称。

然后点击查看天气观测和预报。

如需切换地图:点击带黑十字的绿色按钮放大地图;点击带横线的绿色按钮缩小地图;或者点击绿色箭头查看邻近地区的地图。


METAR-TAF: